Time;durP1;ratioP1;P1;durP2;ratioP2;P2;SDS_P1;SDS_P2;PMS_P1;PMS_P2;Temp;Humidity;BMP_temperature;BMP_pressure;BME280_temperature;BME280_humidity;BME280_pressure;Samples;Min_cycle;Max_cycle;Signal;HPM_P1;HPM_P2
2022/10/10 00:01:20;;;;;;;3.80;1.80;;;8.00;99.90;;;;;;5026691;28;20257;-47
2022/10/10 00:03:47;;;;;;;2.87;1.47;;;8.00;99.90;;;;;;5041736;28;20202;-43
2022/10/10 00:06:14;;;;;;;3.40;1.60;;;8.00;99.90;;;;;;5039588;28;20176;-46
2022/10/10 00:08:42;;;;;;;2.67;1.90;;;8.00;99.90;;;;;;5042961;28;20223;-44
2022/10/10 00:11:08;;;;;;;5.10;1.83;;;8.00;99.90;;;;;;5035133;28;20199;-46
2022/10/10 00:13:35;;;;;;;3.57;1.50;;;8.00;99.90;;;;;;5037347;28;20215;-46
2022/10/10 00:16:04;;;;;;;4.37;1.40;;;8.00;99.90;;;;;;5041377;28;20198;-51
2022/10/10 00:18:32;;;;;;;2.13;1.37;;;8.00;99.90;;;;;;5028360;28;20227;-46
2022/10/10 00:20:59;;;;;;;5.07;1.73;;;8.10;99.90;;;;;;5035053;28;20278;-44
2022/10/10 00:23:25;;;;;;;2.97;1.60;;;8.10;99.90;;;;;;5040560;28;20905;-45
2022/10/10 00:25:52;;;;;;;1.50;1.30;;;8.10;99.90;;;;;;5042137;28;20245;-48
2022/10/10 00:28:19;;;;;;;8.43;1.50;;;8.10;99.90;;;;;;5033148;28;20238;-44
2022/10/10 00:30:46;;;;;;;8.80;1.90;;;8.10;99.90;;;;;;5043603;28;20188;-46
2022/10/10 00:33:15;;;;;;;2.97;1.50;;;8.10;99.90;;;;;;5023497;28;20218;-44
2022/10/10 00:35:42;;;;;;;2.60;1.63;;;8.20;99.90;;;;;;5042953;28;20201;-44
2022/10/10 00:38:09;;;;;;;4.63;1.40;;;8.20;99.90;;;;;;5039248;28;20282;-43
2022/10/10 00:40:43;;;;;;;5.43;1.20;;;8.20;99.90;;;;;;5043249;28;20270;-44
2022/10/10 00:43:11;;;;;;;3.63;1.50;;;8.20;99.90;;;;;;5039384;28;20860;-51
2022/10/10 00:45:40;;;;;;;2.43;1.03;;;8.20;99.90;;;;;;5037843;28;20203;-44
2022/10/10 00:48:09;;;;;;;1.40;1.20;;;8.20;99.90;;;;;;5026038;28;20215;-46
2022/10/10 00:50:40;;;;;;;3.13;1.30;;;8.20;99.90;;;;;;5036896;28;20322;-47
2022/10/10 00:53:10;;;;;;;6.40;1.93;;;8.20;99.90;;;;;;5039001;28;20214;-48
2022/10/10 00:55:37;;;;;;;2.07;1.17;;;8.20;99.90;;;;;;5042610;28;20275;-44
2022/10/10 00:58:06;;;;;;;6.40;1.40;;;8.20;99.90;;;;;;5039959;28;20192;-44
2022/10/10 01:00:33;;;;;;;4.67;1.50;;;8.20;99.90;;;;;;5037876;28;20687;-45
2022/10/10 01:03:00;;;;;;;4.43;1.33;;;8.20;99.90;;;;;;5031919;28;20577;-45
2022/10/10 01:05:26;;;;;;;3.07;1.40;;;8.20;99.90;;;;;;5035327;28;20962;-48
2022/10/10 01:07:55;;;;;;;1.60;1.10;;;8.30;99.90;;;;;;5042191;28;20191;-45
2022/10/10 01:10:23;;;;;;;4.73;1.37;;;8.30;99.90;;;;;;5040420;28;20203;-46
2022/10/10 01:12:58;;;;;;;1.97;1.57;;;8.20;99.90;;;;;;5043068;28;20215;-46
2022/10/10 01:15:37;;;;;;;3.07;1.23;;;8.20;99.90;;;;;;5034776;28;20203;-43
2022/10/10 01:18:15;;;;;;;4.00;1.30;;;8.20;99.90;;;;;;5040521;28;20282;-46
2022/10/10 01:20:54;;;;;;;8.67;1.90;;;8.20;99.90;;;;;;5030126;28;20215;-46
2022/10/10 01:23:44;;;;;;;7.07;1.73;;;8.20;99.90;;;;;;5041013;28;20195;-47
2022/10/10 01:26:34;;;;;;;8.53;1.97;;;8.20;99.90;;;;;;5042567;28;20266;-48
2022/10/10 01:29:10;;;;;;;6.50;1.87;;;8.10;99.90;;;;;;5044302;28;20223;-46
2022/10/10 01:31:43;;;;;;;4.63;1.80;;;8.10;99.90;;;;;;5041404;28;20201;-44
2022/10/10 01:34:22;;;;;;;1.87;1.13;;;8.10;99.90;;;;;;5041011;28;20215;-51
2022/10/10 01:36:56;;;;;;;1.57;1.03;;;8.00;99.90;;;;;;5031380;28;20211;-48
2022/10/10 01:39:31;;;;;;;5.73;1.40;;;8.00;99.90;;;;;;5037696;28;20234;-45
2022/10/10 01:42:04;;;;;;;3.20;1.00;;;8.00;99.90;;;;;;5044691;28;20198;-48
2022/10/10 01:44:32;;;;;;;6.33;1.83;;;8.00;99.90;;;;;;5044673;28;20191;-44
2022/10/10 01:46:59;;;;;;;2.17;1.40;;;8.00;99.90;;;;;;5041314;28;20664;-45
2022/10/10 01:49:32;;;;;;;4.20;1.53;;;8.00;99.90;;;;;;5041958;28;20298;-46
2022/10/10 01:52:12;;;;;;;5.03;1.43;;;8.00;99.90;;;;;;5020950;28;20578;-45
2022/10/10 01:54:47;;;;;;;3.70;1.50;;;8.00;99.90;;;;;;5041291;28;20203;-45
2022/10/10 01:57:21;;;;;;;3.20;1.50;;;7.90;99.90;;;;;;5044815;28;20191;-45
2022/10/10 02:00:02;;;;;;;4.10;1.40;;;7.90;99.90;;;;;;5040836;28;20939;-44
2022/10/10 02:02:41;;;;;;;6.00;1.53;;;7.90;99.90;;;;;;5036551;28;20733;-46
2022/10/10 02:05:16;;;;;;;4.33;1.60;;;7.80;99.90;;;;;;5025519;28;20188;-45
2022/10/10 02:07:46;;;;;;;6.47;1.47;;;7.80;99.90;;;;;;5021066;28;20209;-45
2022/10/10 02:10:19;;;;;;;2.23;1.47;;;7.80;99.90;;;;;;5037936;28;20294;-47
2022/10/10 02:12:48;;;;;;;3.77;1.57;;;7.70;99.90;;;;;;5043705;28;20183;-44
2022/10/10 02:15:19;;;;;;;4.17;1.30;;;7.70;99.90;;;;;;5044730;28;20586;-47
2022/10/10 02:17:49;;;;;;;4.83;1.40;;;7.70;99.90;;;;;;5038304;28;20195;-45
2022/10/10 02:20:19;;;;;;;3.00;1.70;;;7.60;99.90;;;;;;5045352;28;20666;-44
2022/10/10 02:22:47;;;;;;;3.13;1.60;;;7.60;99.90;;;;;;5028737;28;20993;-46
2022/10/10 02:25:14;;;;;;;5.77;1.43;;;7.60;99.90;;;;;;5044977;28;20285;-45
2022/10/10 02:27:46;;;;;;;1.73;1.30;;;7.60;99.90;;;;;;5035734;28;20985;-46
2022/10/10 02:30:16;;;;;;;4.87;1.50;;;7.50;99.90;;;;;;5045473;28;20223;-47
2022/10/10 02:32:47;;;;;;;4.97;1.53;;;7.50;99.90;;;;;;5041833;28;20215;-44
2022/10/10 02:35:18;;;;;;;4.17;1.67;;;7.50;99.90;;;;;;5038912;28;20225;-44
2022/10/10 02:37:46;;;;;;;4.77;1.87;;;7.40;99.90;;;;;;5028680;28;20337;-44
2022/10/10 02:40:19;;;;;;;3.80;1.50;;;7.40;99.90;;;;;;5044749;28;20218;-46
2022/10/10 02:42:48;;;;;;;2.93;1.43;;;7.40;99.90;;;;;;5043001;28;20179;-49
2022/10/10 02:45:18;;;;;;;6.23;1.67;;;7.30;99.90;;;;;;5043876;28;20207;-49
2022/10/10 02:47:46;;;;;;;4.70;2.00;;;7.30;99.90;;;;;;5042932;28;20194;-44
2022/10/10 02:50:13;;;;;;;5.50;1.80;;;7.30;99.90;;;;;;5039680;28;20223;-45
2022/10/10 02:52:40;;;;;;;3.87;1.80;;;7.30;99.90;;;;;;5041458;28;20179;-44
2022/10/10 02:55:07;;;;;;;1.93;1.70;;;7.20;99.90;;;;;;5029670;28;20223;-43
2022/10/10 02:57:35;;;;;;;3.67;1.43;;;7.20;99.90;;;;;;5041040;28;20199;-45
2022/10/10 03:00:02;;;;;;;3.17;1.90;;;7.20;99.90;;;;;;5044895;28;20223;-43
2022/10/10 03:02:30;;;;;;;3.03;1.73;;;7.20;99.90;;;;;;5035582;28;20211;-44
2022/10/10 03:04:57;;;;;;;4.60;1.43;;;7.20;99.90;;;;;;5038761;28;20206;-43
2022/10/10 03:07:25;;;;;;;3.07;1.80;;;7.20;99.90;;;;;;5042482;28;20195;-48
2022/10/10 03:09:51;;;;;;;3.90;1.60;;;7.20;99.90;;;;;;5029680;28;20955;-43
2022/10/10 03:12:18;;;;;;;3.03;1.83;;;7.20;99.90;;;;;;5043635;28;20730;-47
2022/10/10 03:14:45;;;;;;;4.50;1.70;;;7.10;99.90;;;;;;5039864;28;20219;-45
2022/10/10 03:17:12;;;;;;;2.63;1.70;;;7.10;99.90;;;;;;5044860;28;20191;-43
2022/10/10 03:19:41;;;;;;;4.17;1.97;;;7.10;99.90;;;;;;5041331;28;20953;-43
2022/10/10 03:22:08;;;;;;;6.40;1.80;;;7.10;99.90;;;;;;5038751;28;20574;-46
2022/10/10 03:24:35;;;;;;;5.07;2.37;;;7.10;99.90;;;;;;5039581;28;20187;-43
2022/10/10 03:27:03;;;;;;;3.53;1.80;;;7.10;99.90;;;;;;5019371;28;20214;-45
2022/10/10 03:29:30;;;;;;;6.93;2.00;;;7.10;99.90;;;;;;5042672;28;20223;-43
2022/10/10 03:32:18;;;;;;;5.17;1.93;;;7.10;99.90;;;;;;5023286;28;20253;-46
2022/10/10 03:34:47;;;;;;;3.30;1.90;;;7.10;99.90;;;;;;5021335;28;20216;-44
2022/10/10 03:37:14;;;;;;;7.33;1.97;;;7.10;99.90;;;;;;5029584;28;20203;-47
2022/10/10 03:39:41;;;;;;;6.60;2.50;;;7.10;99.90;;;;;;5041129;28;20790;-47
2022/10/10 03:42:07;;;;;;;6.30;2.43;;;7.10;99.90;;;;;;5030185;28;20282;-43
2022/10/10 03:44:34;;;;;;;5.93;1.80;;;7.10;99.90;;;;;;5042147;28;20196;-50
2022/10/10 03:47:02;;;;;;;2.57;1.67;;;7.10;99.90;;;;;;5040224;28;20183;-45
2022/10/10 03:49:29;;;;;;;4.93;2.17;;;7.10;99.90;;;;;;5044202;28;20282;-43
2022/10/10 03:51:59;;;;;;;6.83;1.93;;;7.10;99.90;;;;;;5034842;28;20203;-50
2022/10/10 03:54:26;;;;;;;7.00;2.10;;;7.10;99.90;;;;;;5042913;28;20223;-49
2022/10/10 03:56:53;;;;;;;3.27;1.93;;;7.10;99.90;;;;;;5026484;28;20206;-44
2022/10/10 03:59:20;;;;;;;3.97;2.50;;;7.10;99.90;;;;;;5042883;28;20269;-46
2022/10/10 04:01:47;;;;;;;4.73;2.20;;;7.10;99.90;;;;;;5038831;28;20241;-44
2022/10/10 04:04:14;;;;;;;4.93;1.83;;;7.10;99.90;;;;;;5037986;28;20916;-46
2022/10/10 04:06:41;;;;;;;4.03;1.93;;;7.10;99.90;;;;;;5041900;28;20191;-46
2022/10/10 04:09:09;;;;;;;4.63;2.10;;;7.10;99.90;;;;;;5035217;28;20219;-44
2022/10/10 04:11:37;;;;;;;3.40;1.93;;;7.10;99.90;;;;;;5029840;28;20265;-43
2022/10/10 04:14:04;;;;;;;3.03;2.20;;;7.10;99.90;;;;;;5038825;28;20289;-43
2022/10/10 04:16:31;;;;;;;4.53;2.00;;;7.00;99.90;;;;;;5043674;28;20183;-44
2022/10/10 04:18:58;;;;;;;5.97;1.90;;;7.10;99.90;;;;;;5039906;28;20206;-46
2022/10/10 04:21:26;;;;;;;4.00;2.03;;;7.10;99.90;;;;;;5043730;28;20202;-47
2022/10/10 04:23:53;;;;;;;3.80;2.33;;;7.10;99.90;;;;;;5033683;28;20221;-49
2022/10/10 04:26:21;;;;;;;2.87;2.50;;;7.10;99.90;;;;;;5028224;28;20199;-48
2022/10/10 04:28:49;;;;;;;4.63;2.13;;;7.10;99.90;;;;;;5041332;28;20215;-46
2022/10/10 04:31:16;;;;;;;5.10;2.10;;;7.10;99.90;;;;;;5029601;28;20901;-44
2022/10/10 04:33:43;;;;;;;2.80;2.30;;;7.10;99.90;;;;;;5021413;28;20212;-45
2022/10/10 04:36:09;;;;;;;7.10;2.80;;;7.10;99.90;;;;;;5020835;28;20378;-43
2022/10/10 04:38:37;;;;;;;4.87;1.97;;;7.10;99.90;;;;;;5030617;28;20215;-44
2022/10/10 04:41:04;;;;;;;5.07;2.47;;;7.10;99.90;;;;;;5039061;28;20193;-48
2022/10/10 04:43:33;;;;;;;5.17;2.50;;;7.10;99.90;;;;;;5025974;28;20207;-46
2022/10/10 04:46:00;;;;;;;4.60;2.40;;;7.10;99.90;;;;;;5034205;28;20939;-46
2022/10/10 04:48:27;;;;;;;11.50;2.60;;;7.00;99.90;;;;;;5043084;28;20230;-46
2022/10/10 04:51:16;;;;;;;5.77;2.20;;;7.10;99.90;;;;;;5022747;28;20227;-44
2022/10/10 04:53:44;;;;;;;4.17;2.37;;;7.00;99.90;;;;;;5022960;28;20310;-45
2022/10/10 04:56:10;;;;;;;7.73;2.73;;;7.00;99.90;;;;;;5041087;28;20207;-49
2022/10/10 04:58:38;;;;;;;3.00;2.50;;;7.00;99.90;;;;;;5029570;28;20230;-45
2022/10/10 05:01:05;;;;;;;3.93;2.47;;;7.00;99.90;;;;;;5040730;28;20218;-45
2022/10/10 05:03:32;;;;;;;5.50;3.10;;;7.00;99.90;;;;;;5042838;28;20205;-48
2022/10/10 05:05:59;;;;;;;4.70;2.80;;;7.00;99.90;;;;;;5043058;28;20253;-44
2022/10/10 05:08:26;;;;;;;4.00;2.47;;;7.00;99.90;;;;;;5043844;28;20692;-48
2022/10/10 05:10:53;;;;;;;3.33;2.53;;;7.00;99.90;;;;;;5038878;28;20210;-47
2022/10/10 05:13:20;;;;;;;2.63;2.40;;;7.00;99.90;;;;;;5027215;28;20687;-45
2022/10/10 05:15:50;;;;;;;4.40;3.07;;;7.00;99.90;;;;;;5038086;28;20223;-49
2022/10/10 05:18:18;;;;;;;4.97;2.47;;;7.00;99.90;;;;;;5043546;28;21241;-45
2022/10/10 05:20:46;;;;;;;6.60;3.47;;;7.00;99.90;;;;;;5037694;28;20203;-47
2022/10/10 05:23:13;;;;;;;6.13;2.30;;;7.00;99.90;;;;;;5035064;28;20815;-47
2022/10/10 05:25:43;;;;;;;4.37;3.07;;;7.00;99.90;;;;;;5030721;28;20191;-47
2022/10/10 05:28:10;;;;;;;7.60;2.43;;;7.00;99.90;;;;;;5041266;28;20260;-44
2022/10/10 05:30:38;;;;;;;4.10;2.20;;;6.90;99.90;;;;;;5023236;28;20599;-46
2022/10/10 05:33:06;;;;;;;6.10;3.60;;;6.90;99.90;;;;;;5043661;28;20211;-45
2022/10/10 05:35:33;;;;;;;2.93;2.30;;;6.90;99.90;;;;;;5041036;28;20606;-45
2022/10/10 05:38:00;;;;;;;4.27;2.67;;;6.90;99.90;;;;;;5042179;28;20195;-49
2022/10/10 05:40:26;;;;;;;5.83;2.77;;;6.90;99.90;;;;;;5043434;28;20635;-46
2022/10/10 05:42:53;;;;;;;3.73;2.40;;;6.90;99.90;;;;;;5034914;28;20208;-47
2022/10/10 05:45:21;;;;;;;8.37;3.73;;;6.80;99.90;;;;;;5030819;28;20661;-48
2022/10/10 05:47:47;;;;;;;5.23;2.67;;;6.90;99.90;;;;;;5038051;28;20253;-44
2022/10/10 05:50:27;;;;;;;4.40;2.90;;;6.90;99.90;;;;;;5045673;28;20218;-47
2022/10/10 05:52:54;;;;;;;5.00;2.63;;;6.90;99.90;;;;;;5039988;28;20192;-44
2022/10/10 05:55:21;;;;;;;4.53;2.80;;;6.90;99.90;;;;;;5041673;28;20244;-43
2022/10/10 05:57:47;;;;;;;5.43;2.90;;;6.90;99.90;;;;;;5031716;28;21900;-42
2022/10/10 06:00:15;;;;;;;5.53;3.20;;;6.90;99.90;;;;;;5043417;28;20216;-44
2022/10/10 06:02:42;;;;;;;8.53;3.70;;;6.80;99.90;;;;;;5017684;28;20237;-42
2022/10/10 06:05:09;;;;;;;5.73;3.40;;;6.80;99.90;;;;;;5041543;28;20201;-44
2022/10/10 06:07:37;;;;;;;5.93;3.23;;;6.90;99.90;;;;;;5027472;28;20284;-42
2022/10/10 06:10:05;;;;;;;5.13;3.30;;;6.80;99.90;;;;;;5021588;28;21066;-44
2022/10/10 06:12:32;;;;;;;6.33;3.17;;;6.90;99.90;;;;;;5030439;28;20214;-47
2022/10/10 06:14:59;;;;;;;6.77;3.70;;;6.90;99.90;;;;;;5022639;28;20234;-45
2022/10/10 06:17:26;;;;;;;6.47;3.60;;;6.90;99.90;;;;;;5024945;28;20286;-43
2022/10/10 06:19:53;;;;;;;3.10;2.80;;;6.90;99.90;;;;;;5036796;28;20215;-45
2022/10/10 06:22:20;;;;;;;5.53;2.90;;;6.90;99.90;;;;;;5035230;28;20524;-44
2022/10/10 06:24:48;;;;;;;3.67;3.30;;;7.00;99.90;;;;;;5032056;28;20194;-44
2022/10/10 06:27:14;;;;;;;6.67;3.33;;;7.00;99.90;;;;;;5032403;28;20214;-46
2022/10/10 06:29:41;;;;;;;5.97;3.33;;;7.10;99.90;;;;;;5034382;28;20223;-45
2022/10/10 06:32:08;;;;;;;5.70;3.13;;;7.10;99.90;;;;;;5026839;28;20306;-43
2022/10/10 06:34:35;;;;;;;9.07;3.60;;;7.20;99.90;;;;;;5023036;28;20229;-44
2022/10/10 06:37:02;;;;;;;4.37;3.00;;;7.20;99.90;;;;;;5035449;28;20195;-45
2022/10/10 06:39:32;;;;;;;5.90;3.03;;;7.30;99.90;;;;;;5033630;28;20219;-43
2022/10/10 06:42:00;;;;;;;5.93;3.00;;;7.30;99.90;;;;;;5036587;28;20195;-43
2022/10/10 06:44:26;;;;;;;6.23;3.30;;;7.30;99.90;;;;;;5028670;28;20199;-46
2022/10/10 06:46:53;;;;;;;5.90;3.30;;;7.40;99.90;;;;;;5041264;28;20552;-42
2022/10/10 06:49:21;;;;;;;6.97;3.00;;;7.50;99.90;;;;;;5023430;28;20539;-44
2022/10/10 06:51:48;;;;;;;5.53;2.87;;;7.50;99.90;;;;;;5038546;28;20195;-45
2022/10/10 06:54:15;;;;;;;4.97;2.87;;;7.60;99.90;;;;;;5027757;28;20203;-44
2022/10/10 06:56:42;;;;;;;4.70;3.23;;;7.70;99.90;;;;;;5037723;28;20584;-43
2022/10/10 06:59:10;;;;;;;7.97;3.60;;;7.70;99.90;;;;;;5032352;28;20242;-43
2022/10/10 07:01:37;;;;;;;4.93;3.20;;;7.80;99.90;;;;;;5035266;28;20720;-45
2022/10/10 07:04:04;;;;;;;5.53;3.23;;;7.90;99.90;;;;;;5022259;28;20207;-44
2022/10/10 07:06:31;;;;;;;3.83;2.90;;;8.00;99.90;;;;;;5038142;28;20207;-46
2022/10/10 07:08:58;;;;;;;7.27;3.10;;;8.00;99.90;;;;;;5038552;28;20217;-47
2022/10/10 07:11:24;;;;;;;6.97;2.67;;;8.10;99.90;;;;;;5033709;28;20203;-42
2022/10/10 07:13:53;;;;;;;5.13;3.30;;;8.20;99.90;;;;;;5036338;28;20227;-44
2022/10/10 07:16:22;;;;;;;4.37;2.97;;;8.20;99.90;;;;;;5033956;28;21022;-44
2022/10/10 07:18:48;;;;;;;4.53;3.27;;;8.30;99.90;;;;;;5029075;28;20304;-43
2022/10/10 07:21:15;;;;;;;2.90;2.70;;;8.40;99.90;;;;;;5038197;28;20883;-43
2022/10/10 07:23:42;;;;;;;5.40;2.53;;;8.50;99.90;;;;;;5034700;28;20202;-43
2022/10/10 07:26:13;;;;;;;6.17;2.80;;;8.60;99.90;;;;;;5026864;28;20722;-48
2022/10/10 07:28:39;;;;;;;5.23;2.90;;;8.70;99.90;;;;;;5041182;28;20212;-44
2022/10/10 07:31:09;;;;;;;3.10;2.60;;;8.70;99.90;;;;;;5031627;28;20199;-45
2022/10/10 07:33:39;;;;;;;4.77;2.90;;;8.80;99.90;;;;;;5044404;28;20668;-44
2022/10/10 07:36:06;;;;;;;7.30;2.73;;;8.90;99.90;;;;;;5025120;28;20215;-45
2022/10/10 07:38:33;;;;;;;4.43;2.70;;;9.00;99.90;;;;;;5039610;28;20302;-45
2022/10/10 07:41:00;;;;;;;3.00;2.70;;;9.10;99.90;;;;;;5032672;28;20214;-43
2022/10/10 07:43:27;;;;;;;4.53;2.57;;;9.20;99.90;;;;;;5050301;28;20294;-45
2022/10/10 07:45:55;;;;;;;4.23;2.60;;;9.30;99.90;;;;;;5021937;28;20291;-47
2022/10/10 07:48:21;;;;;;;5.13;2.60;;;9.40;99.90;;;;;;5031393;28;20231;-43
2022/10/10 07:50:49;;;;;;;5.30;2.90;;;9.40;99.90;;;;;;5023000;28;20200;-44
2022/10/10 07:53:16;;;;;;;11.53;2.50;;;9.50;99.90;;;;;;5036813;28;20215;-46
2022/10/10 07:55:43;;;;;;;4.37;2.47;;;9.60;99.90;;;;;;5031890;28;20223;-45
2022/10/10 07:58:12;;;;;;;5.10;2.20;;;9.70;99.90;;;;;;5032375;28;20318;-48
2022/10/10 08:00:40;;;;;;;6.53;2.80;;;9.80;99.90;;;;;;5030728;28;20821;-43
2022/10/10 08:03:07;;;;;;;6.97;2.53;;;9.90;99.90;;;;;;5026143;28;20207;-42
2022/10/10 08:05:34;;;;;;;5.13;2.30;;;10.00;99.90;;;;;;5020899;28;20292;-43
2022/10/10 08:08:03;;;;;;;4.10;2.37;;;10.10;99.90;;;;;;5035264;28;20199;-45
2022/10/10 08:10:29;;;;;;;5.00;2.30;;;10.10;99.90;;;;;;5031272;28;20265;-45
2022/10/10 08:12:57;;;;;;;2.90;1.93;;;10.20;99.90;;;;;;5032029;28;20203;-45
2022/10/10 08:15:24;;;;;;;8.07;2.37;;;10.30;99.90;;;;;;5027624;28;20636;-44
2022/10/10 08:17:50;;;;;;;5.87;2.40;;;10.40;99.90;;;;;;5029877;28;20199;-43
2022/10/10 08:20:18;;;;;;;2.60;2.20;;;10.40;99.90;;;;;;5025207;28;20233;-46
2022/10/10 08:22:44;;;;;;;4.57;2.50;;;10.50;99.90;;;;;;5030392;28;20199;-44
2022/10/10 08:25:12;;;;;;;3.57;2.50;;;10.60;99.90;;;;;;5025590;28;20201;-45
2022/10/10 08:27:39;;;;;;;6.10;2.23;;;10.70;99.90;;;;;;5028605;28;20239;-45
2022/10/10 08:30:06;;;;;;;2.50;2.27;;;10.80;99.90;;;;;;5027701;28;20219;-42
2022/10/10 08:32:33;;;;;;;3.73;2.20;;;10.90;99.90;;;;;;5019952;28;20310;-44
2022/10/10 08:35:00;;;;;;;2.87;2.57;;;11.00;99.90;;;;;;5015209;28;20225;-45
2022/10/10 08:37:27;;;;;;;7.50;2.50;;;11.10;99.90;;;;;;5024104;28;20227;-44
2022/10/10 08:39:53;;;;;;;2.63;2.20;;;11.10;99.90;;;;;;5022459;28;20708;-46
2022/10/10 08:42:29;;;;;;;3.23;2.20;;;11.20;99.90;;;;;;5025013;28;20199;-45
2022/10/10 08:45:01;;;;;;;5.90;2.13;;;11.30;99.90;;;;;;5027614;28;20253;-43
2022/10/10 08:47:36;;;;;;;5.13;2.27;;;11.30;99.90;;;;;;5026330;28;20229;-42
2022/10/10 08:50:14;;;;;;;4.53;2.33;;;11.40;99.90;;;;;;5030323;28;20229;-43
2022/10/10 08:52:46;;;;;;;2.37;1.83;;;11.40;99.90;;;;;;5025326;28;20203;-45
2022/10/10 08:55:17;;;;;;;4.80;2.00;;;11.50;99.90;;;;;;5025635;28;20246;-45
2022/10/10 08:57:49;;;;;;;2.90;2.07;;;11.60;99.90;;;;;;5040471;28;20195;-43
2022/10/10 09:00:20;;;;;;;3.07;2.20;;;11.70;99.90;;;;;;5032334;28;20211;-49
2022/10/10 09:02:50;;;;;;;2.90;2.70;;;11.80;99.90;;;;;;5035821;28;20661;-43
2022/10/10 09:05:55;;;;;;;3.50;2.13;;;11.90;99.90;;;;;;5029737;28;20214;-43
2022/10/10 09:08:36;;;;;;;3.93;2.53;;;12.20;99.90;;;;;;5033059;28;20222;-44
2022/10/10 09:11:11;;;;;;;4.57;2.17;;;12.40;99.90;;;;;;5029611;28;20958;-43
2022/10/10 09:13:47;;;;;;;4.77;2.07;;;12.50;99.90;;;;;;5025672;28;20578;-43
2022/10/10 09:16:23;;;;;;;5.83;2.37;;;12.50;99.90;;;;;;5030578;28;20215;-46
2022/10/10 09:18:59;;;;;;;5.07;2.47;;;12.50;99.90;;;;;;5037798;28;20219;-43
2022/10/10 09:21:29;;;;;;;3.03;1.87;;;12.40;99.90;;;;;;5019663;28;20257;-44
2022/10/10 09:24:02;;;;;;;2.40;2.20;;;12.50;99.90;;;;;;5034849;28;20210;-43
2022/10/10 09:26:34;;;;;;;8.50;2.20;;;12.50;99.90;;;;;;5038531;28;20195;-47
2022/10/10 09:29:13;;;;;;;7.97;2.57;;;12.60;99.90;;;;;;5020870;28;20281;-45
2022/10/10 09:31:44;;;;;;;5.27;2.10;;;12.70;99.90;;;;;;5038713;28;20730;-45
2022/10/10 09:34:17;;;;;;;4.80;2.10;;;12.80;99.90;;;;;;5030449;28;20210;-45
2022/10/10 09:36:45;;;;;;;4.03;2.27;;;12.90;99.90;;;;;;5016966;28;20302;-43
2022/10/10 09:39:20;;;;;;;3.70;2.33;;;12.90;99.90;;;;;;5042090;28;20719;-43
2022/10/10 09:41:51;;;;;;;5.30;2.50;;;;;;;;;;5034147;28;20195;-49
2022/10/10 09:44:21;;;;;;;3.90;2.67;;;;;;;;;;5029842;28;20283;-46
2022/10/10 09:46:48;;;;;;;4.17;2.63;;;13.20;99.90;;;;;;5039189;28;20199;-45
2022/10/10 09:49:17;;;;;;;5.37;2.40;;;13.30;99.90;;;;;;5045926;28;20285;-47
2022/10/10 09:51:45;;;;;;;2.07;1.70;;;13.30;99.90;;;;;;5026945;28;20214;-43
2022/10/10 09:54:15;;;;;;;2.37;2.13;;;13.30;99.90;;;;;;5037134;28;20223;-47
2022/10/10 09:56:48;;;;;;;2.73;2.20;;;13.40;99.90;;;;;;5038004;28;20216;-44
2022/10/10 09:59:40;;;;;;;6.87;2.30;;;13.40;99.90;;;;;;5026822;28;20223;-43
2022/10/10 10:02:14;;;;;;;2.83;1.87;;;13.50;99.90;;;;;;5037156;28;20214;-45
2022/10/10 10:04:43;;;;;;;4.10;2.00;;;14.40;99.90;;;;;;5021932;28;20209;-43
2022/10/10 10:07:20;;;;;;;5.73;2.23;;;13.60;99.90;;;;;;5027479;28;20203;-44
2022/10/10 10:09:49;;;;;;;2.33;2.03;;;13.60;99.90;;;;;;5043324;28;20211;-44
2022/10/10 10:12:17;;;;;;;5.53;2.50;;;;;;;;;;5037232;28;20199;-48
2022/10/10 10:14:46;;;;;;;3.60;2.73;;;;;;;;;;5040826;28;20199;-45
2022/10/10 10:17:15;;;;;;;4.60;2.80;;;14.10;99.90;;;;;;5036884;28;20697;-47
2022/10/10 10:19:44;;;;;;;3.43;2.57;;;14.00;99.90;;;;;;5041816;28;20215;-43
2022/10/10 10:22:31;;;;;;;2.43;2.10;;;14.00;99.90;;;;;;5031323;28;20215;-50
2022/10/10 10:24:58;;;;;;;4.53;2.20;;;14.00;99.90;;;;;;5028641;28;20687;-46
2022/10/10 10:27:26;;;;;;;5.53;2.80;;;14.00;99.90;;;;;;5036011;28;20206;-48
2022/10/10 10:29:56;;;;;;;4.33;1.90;;;14.10;99.90;;;;;;5042037;28;20211;-43
2022/10/10 10:32:39;;;;;;;4.33;2.03;;;14.10;99.90;;;;;;5033099;28;20187;-48
2022/10/10 10:35:23;;;;;;;4.10;1.93;;;14.20;99.90;;;;;;5055294;28;20206;-44
2022/10/10 10:38:11;;;;;;;8.90;2.20;;;14.20;99.90;;;;;;5037152;28;20226;-45
2022/10/10 10:40:40;;;;;;;3.93;2.30;;;14.30;99.90;;;;;;5035403;28;20921;-43
2022/10/10 10:43:22;;;;;;;5.33;3.27;;;14.30;99.90;;;;;;5039335;28;20206;-45
2022/10/10 10:45:58;;;;;;;5.73;1.90;;;;;;;;;;5042525;28;20192;-50
2022/10/10 10:48:29;;;;;;;3.93;2.43;;;14.50;99.90;;;;;;5033506;28;20219;-46
2022/10/10 10:51:32;;;;;;;3.13;2.00;;;14.60;99.90;;;;;;5028568;28;20216;-45
2022/10/10 10:54:06;;;;;;;4.03;2.20;;;14.70;99.90;;;;;;5042684;28;20199;-44
2022/10/10 10:56:37;;;;;;;5.70;2.40;;;14.70;99.90;;;;;;5030669;28;20268;-44
2022/10/10 10:59:18;;;;;;;2.63;1.80;;;14.80;99.90;;;;;;5040369;28;21045;-44
2022/10/10 11:01:51;;;;;;;6.07;2.30;;;15.00;99.90;;;;;;5038564;28;20278;-44
2022/10/10 11:04:35;;;;;;;4.73;3.20;;;15.10;99.90;;;;;;5033330;28;20717;-43
2022/10/10 11:07:14;;;;;;;7.30;2.97;;;15.20;99.90;;;;;;5033981;28;20203;-46
2022/10/10 11:09:44;;;;;;;6.17;2.43;;;15.30;99.90;;;;;;5025199;28;20321;-45
2022/10/10 11:12:17;;;;;;;5.13;2.87;;;;;;;;;;5039547;28;20191;-44
2022/10/10 11:14:49;;;;;;;6.07;2.50;;;;;;;;;;5035430;28;20752;-46
2022/10/10 11:17:21;;;;;;;4.00;2.20;;;15.50;99.90;;;;;;5034788;28;20747;-43
2022/10/10 11:19:55;;;;;;;3.40;3.10;;;15.60;99.90;;;;;;5036037;28;20227;-44
2022/10/10 11:22:24;;;;;;;4.97;2.10;;;;;;;;;;5032393;28;20906;-46
2022/10/10 11:24:54;;;;;;;3.30;2.00;;;15.70;99.90;;;;;;5021598;28;20715;-44
2022/10/10 11:27:26;;;;;;;4.27;2.20;;;15.80;99.90;;;;;;5036769;28;20252;-48
2022/10/10 11:30:06;;;;;;;5.27;2.50;;;15.90;99.90;;;;;;5041902;28;20580;-45
2022/10/10 11:32:40;;;;;;;4.33;2.30;;;16.00;99.90;;;;;;5037077;28;20272;-43
2022/10/10 11:35:23;;;;;;;6.27;2.30;;;16.00;99.90;;;;;;5034564;28;20215;-46
2022/10/10 11:37:55;;;;;;;3.47;1.83;;;16.10;99.90;;;;;;5029550;28;20219;-44
2022/10/10 11:40:35;;;;;;;2.40;2.10;;;16.30;99.90;;;;;;5016408;28;20285;-44
2022/10/10 11:43:06;;;;;;;2.30;2.10;;;16.40;99.90;;;;;;5030129;28;20306;-46
2022/10/10 11:45:39;;;;;;;3.43;2.20;;;16.50;99.90;;;;;;5035237;28;20300;-43
2022/10/10 11:48:18;;;;;;;8.73;2.77;;;16.50;99.90;;;;;;5034974;28;20203;-43
2022/10/10 11:50:49;;;;;;;7.00;2.93;;;16.50;99.90;;;;;;5029343;28;20261;-44
2022/10/10 11:53:22;;;;;;;4.50;2.70;;;16.60;99.90;;;;;;5025570;28;20210;-43
2022/10/10 11:55:55;;;;;;;5.47;2.17;;;16.70;99.90;;;;;;5016509;28;20965;-45
2022/10/10 11:58:33;;;;;;;7.30;2.70;;;16.60;99.90;;;;;;5037927;28;20219;-46
2022/10/10 12:01:05;;;;;;;4.93;2.60;;;16.60;99.90;;;;;;5033205;28;20787;-44
2022/10/10 12:03:34;;;;;;;4.60;2.33;;;16.70;99.90;;;;;;5035102;28;20203;-44
2022/10/10 12:06:08;;;;;;;6.30;1.80;;;16.80;99.90;;;;;;5033450;28;20199;-45
2022/10/10 12:08:39;;;;;;;4.87;2.40;;;16.80;99.90;;;;;;5034277;28;20587;-46
2022/10/10 12:11:13;;;;;;;6.40;1.80;;;16.90;99.90;;;;;;5032054;28;20231;-45
2022/10/10 12:13:43;;;;;;;7.17;2.33;;;16.90;99.90;;;;;;5021105;28;20196;-44
2022/10/10 12:16:13;;;;;;;4.47;2.03;;;16.90;99.90;;;;;;5035137;28;20203;-45
2022/10/10 12:18:45;;;;;;;2.90;1.90;;;16.90;99.90;;;;;;5031900;28;20233;-48
2022/10/10 12:21:14;;;;;;;3.50;2.23;;;17.00;99.90;;;;;;5028426;28;20293;-44
2022/10/10 12:23:42;;;;;;;3.03;2.23;;;17.00;99.90;;;;;;5033006;28;20571;-47
2022/10/10 12:26:18;;;;;;;7.93;2.67;;;17.00;99.90;;;;;;5033852;28;20207;-43
2022/10/10 12:29:08;;;;;;;5.17;2.20;;;16.90;99.90;;;;;;5022352;28;20230;-47
2022/10/10 12:31:36;;;;;;;5.27;2.47;;;16.90;99.90;;;;;;5031766;28;20582;-51
2022/10/10 12:34:23;;;;;;;5.20;2.70;;;16.80;99.90;;;;;;5026643;28;20998;-44
2022/10/10 12:36:56;;;;;;;4.23;2.90;;;16.80;99.90;;;;;;5017232;28;20211;-44
2022/10/10 12:39:38;;;;;;;4.17;2.13;;;16.70;99.90;;;;;;5032388;28;21041;-43
2022/10/10 12:42:27;;;;;;;3.00;2.20;;;16.80;99.90;;;;;;5033865;28;20349;-43
2022/10/10 12:44:54;;;;;;;3.47;2.47;;;16.80;99.90;;;;;;5022313;28;20184;-46
2022/10/10 12:47:42;;;;;;;5.93;2.40;;;16.80;99.90;;;;;;5034615;28;20206;-50
2022/10/10 12:50:21;;;;;;;4.50;1.87;;;16.90;99.90;;;;;;5028947;28;20743;-49
2022/10/10 12:52:50;;;;;;;2.67;2.00;;;16.90;99.90;;;;;;5031865;28;20199;-47
2022/10/10 12:55:21;;;;;;;3.47;2.33;;;17.00;99.90;;;;;;5027035;28;20211;-44
2022/10/10 12:57:50;;;;;;;4.70;2.63;;;17.10;99.90;;;;;;5032911;28;20244;-45
2022/10/10 13:00:19;;;;;;;5.90;2.50;;;17.10;99.90;;;;;;5021327;28;20649;-44
2022/10/10 13:02:50;;;;;;;5.67;2.50;;;17.30;99.90;;;;;;5038246;28;20196;-44
2022/10/10 13:05:27;;;;;;;3.63;2.27;;;17.40;99.90;;;;;;5035705;28;20207;-46
2022/10/10 13:07:58;;;;;;;8.43;3.00;;;17.40;99.90;;;;;;5024582;28;20206;-42
2022/10/10 13:10:27;;;;;;;3.40;2.40;;;17.20;99.90;;;;;;5036793;28;20207;-43
2022/10/10 13:13:01;;;;;;;7.60;2.90;;;17.20;99.90;;;;;;5028268;28;20203;-42